createdAt,value
2019-05-18T00:00:05.320Z,8.00
2019-05-18T00:01:05.327Z,8.00
2019-05-18T00:02:05.640Z,7.94
2019-05-18T00:03:05.636Z,7.94
2019-05-18T00:04:05.797Z,7.88
2019-05-18T00:05:04.991Z,7.88
2019-05-18T00:06:06.920Z,7.88
2019-05-18T00:07:05.884Z,7.88
2019-05-18T00:08:05.094Z,7.81
2019-05-18T00:09:05.971Z,7.75
2019-05-18T00:10:05.384Z,7.75
2019-05-18T00:11:05.885Z,7.75
2019-05-18T00:12:05.886Z,7.75
2019-05-18T00:13:05.147Z,7.69
2019-05-18T00:14:05.565Z,7.69
2019-05-18T00:15:05.794Z,7.69
2019-05-18T00:16:05.315Z,7.69
2019-05-18T00:17:07.957Z,7.62
2019-05-18T00:18:05.325Z,7.62
2019-05-18T00:19:05.184Z,7.56
2019-05-18T00:20:05.240Z,7.56
2019-05-18T00:21:05.570Z,7.56
2019-05-18T00:22:05.482Z,7.56
2019-05-18T00:23:05.642Z,7.56
2019-05-18T00:24:05.071Z,7.56
2019-05-18T00:25:05.244Z,7.56
2019-05-18T00:26:05.236Z,7.50
2019-05-18T00:27:05.552Z,7.50
2019-05-18T00:28:05.647Z,7.50
2019-05-18T00:29:05.546Z,7.50
2019-05-18T00:30:05.635Z,7.50
2019-05-18T00:31:04.904Z,7.50
2019-05-18T00:32:05.428Z,7.44
2019-05-18T00:33:05.386Z,7.44
2019-05-18T00:34:05.801Z,7.44
2019-05-18T00:35:05.168Z,7.44
2019-05-18T00:36:04.999Z,7.38
2019-05-18T00:37:05.309Z,7.38
2019-05-18T00:38:05.226Z,7.38
2019-05-18T00:39:05.752Z,7.38
2019-05-18T00:40:05.720Z,7.31
2019-05-18T00:41:05.230Z,7.31
2019-05-18T00:42:05.414Z,7.31
2019-05-18T00:43:05.395Z,7.31
2019-05-18T00:44:05.496Z,7.31
2019-05-18T00:45:05.881Z,7.31
2019-05-18T00:46:05.959Z,7.25
2019-05-18T00:47:05.251Z,7.25
2019-05-18T00:48:05.171Z,7.25
2019-05-18T00:49:05.172Z,7.19
2019-05-18T00:50:04.999Z,7.12
2019-05-18T00:51:05.313Z,7.12
2019-05-18T00:52:05.331Z,7.12
2019-05-18T00:53:05.409Z,7.12
2019-05-18T00:54:05.320Z,7.12
2019-05-18T00:55:05.314Z,7.12
2019-05-18T00:56:05.622Z,7.12
2019-05-18T00:57:05.572Z,7.06
2019-05-18T00:58:05.706Z,7.06
2019-05-18T00:59:05.006Z,7.06
2019-05-18T01:00:05.158Z,7.06
2019-05-18T01:01:05.001Z,7.06
2019-05-18T01:02:05.173Z,7.06
2019-05-18T01:03:05.627Z,7.06
2019-05-18T01:04:05.649Z,7.06
2019-05-18T01:05:05.076Z,7.06
2019-05-18T01:06:05.398Z,7.06
2019-05-18T01:07:05.633Z,7.00
2019-05-18T01:08:05.638Z,7.00
2019-05-18T01:09:04.993Z,7.00
2019-05-18T01:10:04.908Z,7.00
2019-05-18T01:11:05.311Z,7.00
2019-05-18T01:12:05.643Z,7.00
2019-05-18T01:13:05.653Z,7.00
2019-05-18T01:14:05.561Z,6.94
2019-05-18T01:15:05.464Z,6.94
2019-05-18T01:16:05.010Z,6.94
2019-05-18T01:17:05.081Z,6.94
2019-05-18T01:18:05.489Z,6.94
2019-05-18T01:19:05.412Z,6.88
2019-05-18T01:20:05.894Z,6.88
2019-05-18T01:21:05.406Z,6.88
2019-05-18T01:22:05.389Z,6.88
2019-05-18T01:23:05.964Z,6.88
2019-05-18T01:24:05.864Z,6.81
2019-05-18T01:25:05.166Z,6.81
2019-05-18T01:26:05.305Z,6.81
2019-05-18T01:27:05.889Z,6.81
2019-05-18T01:28:05.791Z,6.81
2019-05-18T01:29:05.966Z,6.81
2019-05-18T01:30:05.239Z,6.81
2019-05-18T01:31:05.804Z,6.75
2019-05-18T01:32:05.722Z,6.75
2019-05-18T01:33:05.643Z,6.75
2019-05-18T01:34:05.786Z,6.75
2019-05-18T01:35:05.323Z,6.75
2019-05-18T01:36:05.243Z,6.75
2019-05-18T01:37:05.395Z,6.75
2019-05-18T01:38:05.389Z,6.75
2019-05-18T01:39:05.660Z,6.75
2019-05-18T01:40:05.564Z,6.69
2019-05-18T01:41:05.951Z,6.69
2019-05-18T01:42:05.244Z,6.69
2019-05-18T01:43:05.145Z,6.69
2019-05-18T01:44:05.160Z,6.69
2019-05-18T01:45:16.121Z,6.69
2019-05-18T01:46:05.884Z,6.62
2019-05-18T01:47:05.803Z,6.62
2019-05-18T01:48:13.581Z,6.62
2019-05-18T01:49:05.884Z,6.56
2019-05-18T01:50:05.894Z,6.56
2019-05-18T01:51:05.072Z,6.56
2019-05-18T01:52:05.085Z,6.56
2019-05-18T01:53:05.256Z,6.56
2019-05-18T01:54:05.081Z,6.56
2019-05-18T01:55:05.189Z,6.56
2019-05-18T01:56:05.088Z,6.56
2019-05-18T01:58:05.881Z,6.50
2019-05-18T01:59:05.716Z,6.50
2019-05-18T02:00:05.789Z,6.50
2019-05-18T02:01:05.881Z,6.44
2019-05-18T02:02:05.088Z,6.44
2019-05-18T02:03:04.998Z,6.44
2019-05-18T02:04:05.406Z,6.44
2019-05-18T02:05:05.404Z,6.44
2019-05-18T02:06:05.231Z,6.44
2019-05-18T02:07:05.326Z,6.44
2019-05-18T02:08:05.629Z,6.38
2019-05-18T02:09:05.710Z,6.44
2019-05-18T02:10:05.871Z,6.44
2019-05-18T02:11:05.799Z,6.44
2019-05-18T02:12:05.322Z,6.38
2019-05-18T02:13:05.151Z,6.38
2019-05-18T02:14:05.407Z,6.38
2019-05-18T02:15:05.324Z,6.38
2019-05-18T02:16:05.001Z,6.31
2019-05-18T02:17:06.232Z,6.31
2019-05-18T02:18:05.794Z,6.31
2019-05-18T02:19:05.415Z,6.31
2019-05-18T02:20:05.631Z,6.31
2019-05-18T02:21:05.637Z,6.31
2019-05-18T02:22:05.727Z,6.31
2019-05-18T02:23:05.719Z,6.31
2019-05-18T02:24:05.818Z,6.25
2019-05-18T02:25:05.874Z,6.25
2019-05-18T02:26:05.181Z,6.25
2019-05-18T02:27:05.002Z,6.25
2019-05-18T02:28:05.162Z,6.25
2019-05-18T02:29:05.480Z,6.19
2019-05-18T02:30:05.114Z,6.19
2019-05-18T02:31:04.987Z,6.19
2019-05-18T02:32:05.481Z,6.19
2019-05-18T02:33:05.480Z,6.19
2019-05-18T02:34:05.790Z,6.19
2019-05-18T02:35:05.783Z,6.12
2019-05-18T02:36:05.890Z,6.12
2019-05-18T02:37:05.238Z,6.12
2019-05-18T02:38:05.245Z,6.12
2019-05-18T02:39:05.245Z,6.12
2019-05-18T02:40:05.408Z,6.12
2019-05-18T02:41:05.801Z,6.12
2019-05-18T02:42:05.825Z,6.12
2019-05-18T02:43:05.808Z,6.12
2019-05-18T02:44:05.654Z,6.06
2019-05-18T02:45:05.982Z,6.06
2019-05-18T02:46:05.804Z,6.06
2019-05-18T02:47:05.082Z,6.06
2019-05-18T02:48:05.659Z,6.06
2019-05-18T02:49:05.478Z,6.06
2019-05-18T02:50:05.570Z,6.00
2019-05-18T02:51:05.556Z,6.00
2019-05-18T02:52:05.644Z,6.00
2019-05-18T02:53:05.479Z,6.00
2019-05-18T02:54:05.800Z,6.00
2019-05-18T02:55:05.819Z,5.94
2019-05-18T02:56:05.891Z,5.94
2019-05-18T02:57:05.789Z,5.94
2019-05-18T02:58:05.791Z,5.94
2019-05-18T02:59:05.867Z,5.94
2019-05-18T03:00:05.470Z,5.94
2019-05-18T03:01:05.469Z,5.94
2019-05-18T03:02:05.049Z,5.94
2019-05-18T03:03:05.085Z,5.94
2019-05-18T03:04:05.070Z,5.88
2019-05-18T03:05:05.628Z,5.88
2019-05-18T03:06:05.654Z,5.88
2019-05-18T03:07:05.627Z,5.88
2019-05-18T03:08:05.638Z,5.88
2019-05-18T03:09:05.882Z,5.88
2019-05-18T03:10:05.712Z,5.88
2019-05-18T03:11:05.911Z,5.88
2019-05-18T03:12:04.990Z,5.81
2019-05-18T03:13:05.159Z,5.81
2019-05-18T03:14:05.332Z,5.81
2019-05-18T03:15:05.579Z,5.81
2019-05-18T03:16:05.708Z,5.81
2019-05-18T03:17:05.897Z,5.81
2019-05-18T03:18:05.496Z,5.81
2019-05-18T03:19:08.535Z,5.81
2019-05-18T03:20:05.560Z,5.75
2019-05-18T03:21:05.721Z,5.75
2019-05-18T03:22:05.163Z,5.75
2019-05-18T03:23:05.240Z,5.75
2019-05-18T03:24:05.574Z,5.81
2019-05-18T03:25:05.547Z,5.81
2019-05-18T03:26:05.486Z,5.75
2019-05-18T03:27:05.729Z,5.75
2019-05-18T03:28:05.006Z,5.75
2019-05-18T03:29:05.094Z,5.69
2019-05-18T03:30:05.410Z,5.69
2019-05-18T03:31:05.031Z,5.69
2019-05-18T03:32:05.494Z,5.69
2019-05-18T03:33:04.986Z,5.62
2019-05-18T03:34:05.570Z,6.00
2019-05-18T03:35:05.182Z,6.12
2019-05-18T03:36:05.086Z,6.06
2019-05-18T03:37:05.107Z,6.00
2019-05-18T03:38:05.264Z,5.94
2019-05-18T03:39:05.256Z,5.94
2019-05-18T03:40:05.177Z,5.88
2019-05-18T03:41:05.261Z,5.88
2019-05-18T03:42:05.406Z,5.81
2019-05-18T03:43:05.718Z,5.94
2019-05-18T03:44:05.088Z,6.12
2019-05-18T03:45:05.413Z,6.31
2019-05-18T03:46:05.504Z,6.62
2019-05-18T03:47:05.412Z,6.75
2019-05-18T03:48:05.318Z,6.75
2019-05-18T03:49:05.640Z,6.62
2019-05-18T03:50:05.888Z,6.56
2019-05-18T03:51:05.882Z,6.44
2019-05-18T03:52:05.166Z,6.31
2019-05-18T03:53:05.252Z,6.25
2019-05-18T03:54:05.554Z,6.25
2019-05-18T03:55:05.639Z,6.19
2019-05-18T03:56:05.814Z,6.25
2019-05-18T03:57:05.721Z,6.38
2019-05-18T03:58:05.408Z,6.38
2019-05-18T03:59:05.406Z,6.38
2019-05-18T04:00:05.958Z,6.69
2019-05-18T04:01:05.249Z,7.06
2019-05-18T04:02:05.307Z,7.38
2019-05-18T04:03:05.324Z,7.38
2019-05-18T04:04:05.468Z,7.44
2019-05-18T04:05:05.822Z,7.38
2019-05-18T04:06:05.805Z,7.31
2019-05-18T04:07:05.250Z,7.31
2019-05-18T04:08:05.486Z,7.31
2019-05-18T04:09:05.715Z,7.50
2019-05-18T04:10:05.958Z,7.50
2019-05-18T04:11:05.983Z,7.50
2019-05-18T04:12:06.383Z,7.56
2019-05-18T04:13:05.553Z,7.62
2019-05-18T04:14:08.263Z,7.75
2019-05-18T04:15:05.161Z,8.00
2019-05-18T04:16:05.152Z,8.06
2019-05-18T04:17:05.554Z,8.12
2019-05-18T04:18:05.467Z,8.25
2019-05-18T04:19:05.018Z,8.31
2019-05-18T04:20:05.957Z,8.50
2019-05-18T04:21:05.870Z,8.62
2019-05-18T04:22:05.959Z,8.75
2019-05-18T04:23:05.490Z,8.94
2019-05-18T04:24:05.391Z,9.06
2019-05-18T04:25:06.214Z,9.25
2019-05-18T04:26:05.277Z,9.56
2019-05-18T04:27:05.254Z,9.69
2019-05-18T04:28:05.164Z,9.81
2019-05-18T04:29:05.737Z,9.94
2019-05-18T04:30:05.105Z,10.06
2019-05-18T04:31:05.077Z,10.19
2019-05-18T04:32:05.549Z,10.31
2019-05-18T04:33:05.659Z,10.50
2019-05-18T04:34:05.254Z,10.69
2019-05-18T04:35:05.170Z,10.81
2019-05-18T04:36:05.617Z,11.00
2019-05-18T04:37:05.637Z,11.19
2019-05-18T04:38:05.811Z,11.38
2019-05-18T04:39:05.725Z,11.56
2019-05-18T04:40:05.734Z,11.69
2019-05-18T04:41:05.878Z,11.88
2019-05-18T04:42:05.313Z,12.06
2019-05-18T04:43:05.629Z,12.19
2019-05-18T04:44:05.233Z,12.38
2019-05-18T04:45:05.637Z,12.50
2019-05-18T04:46:05.564Z,12.69
2019-05-18T04:47:05.557Z,12.88
2019-05-18T04:48:05.466Z,13.06
2019-05-18T04:49:05.467Z,13.25
2019-05-18T04:50:06.256Z,13.44
2019-05-18T04:51:05.722Z,13.62
2019-05-18T04:52:05.888Z,13.75
2019-05-18T04:53:05.171Z,14.00
2019-05-18T04:54:05.083Z,14.19
2019-05-18T04:55:05.087Z,14.25
2019-05-18T04:56:05.476Z,14.44
2019-05-18T04:57:04.995Z,14.62
2019-05-18T04:58:05.872Z,14.75
2019-05-18T04:59:05.008Z,14.94
2019-05-18T05:00:04.997Z,15.12
2019-05-18T05:01:04.994Z,15.31
2019-05-18T05:02:05.086Z,15.44
2019-05-18T05:03:05.079Z,15.56
2019-05-18T05:04:05.157Z,15.69
2019-05-18T05:05:05.318Z,15.88
2019-05-18T05:06:05.634Z,16.06
2019-05-18T05:07:05.894Z,16.19
2019-05-18T05:08:05.714Z,16.31
2019-05-18T05:09:05.728Z,16.38
2019-05-18T05:10:05.679Z,16.56
2019-05-18T05:11:05.641Z,16.62
2019-05-18T05:12:05.811Z,16.81
2019-05-18T05:13:05.805Z,16.94
2019-05-18T05:14:05.799Z,17.12
2019-05-18T05:15:05.000Z,17.31
2019-05-18T05:16:05.496Z,17.50
2019-05-18T05:17:05.078Z,17.62
2019-05-18T05:18:04.989Z,17.75
2019-05-18T05:19:08.068Z,17.88
2019-05-18T05:20:18.589Z,18.00
2019-05-18T05:21:05.244Z,18.12
2019-05-18T05:22:05.733Z,18.38
2019-05-18T05:23:05.812Z,18.69
2019-05-18T05:24:05.803Z,18.81
2019-05-18T05:25:05.079Z,19.19
2019-05-18T05:26:05.255Z,19.50
2019-05-18T05:27:05.175Z,19.69
2019-05-18T05:28:05.555Z,20.06
2019-05-18T05:29:05.006Z,20.44
2019-05-18T05:30:05.885Z,20.81
2019-05-18T05:31:05.174Z,21.19
2019-05-18T05:32:05.161Z,21.56
2019-05-18T05:33:05.077Z,22.00
2019-05-18T05:34:05.408Z,22.44
2019-05-18T05:35:05.408Z,22.81
2019-05-18T05:36:05.493Z,23.19
2019-05-18T05:37:05.728Z,23.56
2019-05-18T05:38:05.719Z,24.00
2019-05-18T05:39:05.975Z,24.38
2019-05-18T05:40:05.818Z,24.62
2019-05-18T05:41:05.795Z,24.75
2019-05-18T05:42:05.096Z,25.00
2019-05-18T05:43:05.008Z,25.12
2019-05-18T05:44:05.096Z,25.19
2019-05-18T05:45:05.418Z,25.38
2019-05-18T05:46:05.892Z,25.56
2019-05-18T05:47:05.885Z,25.56
2019-05-18T05:48:05.085Z,25.69
2019-05-18T05:49:05.965Z,25.75
2019-05-18T05:50:05.878Z,25.81
2019-05-18T05:51:05.093Z,25.94
2019-05-18T05:52:05.964Z,25.94
2019-05-18T05:53:05.069Z,26.00
2019-05-18T05:54:05.152Z,25.56
2019-05-18T05:55:05.638Z,25.62
2019-05-18T05:56:05.628Z,25.81
2019-05-18T05:57:04.919Z,25.69
2019-05-18T05:58:05.394Z,25.81
2019-05-18T05:59:05.311Z,25.88
2019-05-18T06:00:05.886Z,25.69
2019-05-18T06:01:05.885Z,25.75
2019-05-18T06:02:05.246Z,25.75
2019-05-18T06:03:05.147Z,25.62
2019-05-18T06:04:05.578Z,25.56
2019-05-18T06:05:05.887Z,25.75
2019-05-18T06:06:05.712Z,25.81
2019-05-18T06:07:05.729Z,25.75
2019-05-18T06:08:05.719Z,25.88
2019-05-18T06:09:05.162Z,25.81
2019-05-18T06:10:05.545Z,25.44
2019-05-18T06:11:05.950Z,25.56
2019-05-18T06:12:05.560Z,25.12
2019-05-18T06:13:05.906Z,24.31
2019-05-18T06:14:05.981Z,24.31
2019-05-18T06:15:05.871Z,24.12
2019-05-18T06:16:05.329Z,24.31
2019-05-18T06:17:08.223Z,24.31
2019-05-18T06:18:05.970Z,24.25
2019-05-18T06:19:05.238Z,24.19
2019-05-18T06:20:05.650Z,24.06
2019-05-18T06:21:05.994Z,23.94
2019-05-18T06:22:05.959Z,23.69
2019-05-18T06:23:05.173Z,23.38
2019-05-18T06:24:05.722Z,23.19
2019-05-18T06:25:05.394Z,23.06
2019-05-18T06:26:05.394Z,23.06
2019-05-18T06:27:05.392Z,23.06
2019-05-18T06:28:05.788Z,23.19
2019-05-18T06:29:05.079Z,23.19
2019-05-18T06:30:05.489Z,23.25
2019-05-18T06:31:05.393Z,23.25
2019-05-18T06:32:05.401Z,23.38
2019-05-18T06:33:05.735Z,23.44
2019-05-18T06:34:05.813Z,23.50
2019-05-18T06:35:05.907Z,23.62
2019-05-18T06:36:05.792Z,23.81
2019-05-18T06:37:06.043Z,23.94
2019-05-18T06:38:05.085Z,23.88
2019-05-18T06:39:05.229Z,23.94
2019-05-18T06:40:05.246Z,24.00
2019-05-18T06:41:05.147Z,24.19
2019-05-18T06:42:05.555Z,24.38
2019-05-18T06:43:05.162Z,24.38
2019-05-18T06:44:05.565Z,24.50
2019-05-18T06:45:05.183Z,24.56
2019-05-18T06:46:05.071Z,24.56
2019-05-18T06:47:05.485Z,24.81
2019-05-18T06:48:05.570Z,24.94
2019-05-18T06:49:05.886Z,25.00
2019-05-18T06:50:05.328Z,25.12
2019-05-18T06:51:07.414Z,25.25
2019-05-18T06:52:05.082Z,25.25
2019-05-18T06:53:05.018Z,25.31
2019-05-18T06:54:05.998Z,25.38
2019-05-18T06:55:05.177Z,25.38
2019-05-18T06:56:05.151Z,25.44
2019-05-18T06:57:06.701Z,25.50
2019-05-18T06:58:05.909Z,25.44
2019-05-18T06:59:05.246Z,25.50
2019-05-18T07:00:05.402Z,25.50
2019-05-18T07:01:05.325Z,25.56
2019-05-18T07:02:05.800Z,25.56
2019-05-18T07:03:05.322Z,25.62
2019-05-18T07:04:05.238Z,25.75
2019-05-18T07:05:05.422Z,25.94
2019-05-18T07:06:05.559Z,26.06
2019-05-18T07:07:05.745Z,26.12
2019-05-18T07:08:05.627Z,26.12
2019-05-18T07:09:11.929Z,26.12
2019-05-18T07:10:05.557Z,26.19
2019-05-18T07:11:05.804Z,26.19
2019-05-18T07:12:05.015Z,26.19
2019-05-18T07:13:05.090Z,26.25
2019-05-18T07:14:05.574Z,26.25
2019-05-18T07:15:05.573Z,26.31
2019-05-18T07:16:05.734Z,26.31
2019-05-18T07:17:05.877Z,26.38
2019-05-18T07:18:06.045Z,26.44
2019-05-18T07:19:05.349Z,26.44
2019-05-18T07:20:05.286Z,26.50
2019-05-18T07:21:05.255Z,26.50
2019-05-18T07:22:05.422Z,26.56
2019-05-18T07:23:05.796Z,26.56
2019-05-18T07:24:05.419Z,26.62
2019-05-18T07:25:05.343Z,26.62
2019-05-18T07:26:05.963Z,26.62
2019-05-18T07:27:05.340Z,26.56
2019-05-18T07:28:05.263Z,26.62
2019-05-18T07:29:05.838Z,26.69
2019-05-18T07:30:05.289Z,26.69
2019-05-18T07:31:05.334Z,26.69
2019-05-18T07:32:05.248Z,26.69
2019-05-18T07:33:05.237Z,26.69
2019-05-18T07:34:05.878Z,26.75
2019-05-18T07:35:05.116Z,26.81
2019-05-18T07:36:05.079Z,26.94
2019-05-18T07:37:06.490Z,26.94
2019-05-18T07:38:05.738Z,26.94
2019-05-18T07:39:05.732Z,27.00
2019-05-18T07:40:05.164Z,27.00
2019-05-18T07:41:05.575Z,27.00
2019-05-18T07:42:05.546Z,26.81
2019-05-18T07:43:05.742Z,26.75
2019-05-18T07:44:05.647Z,26.75
2019-05-18T07:45:05.138Z,26.69
2019-05-18T07:46:05.005Z,26.69
2019-05-18T07:47:05.976Z,26.69
2019-05-18T07:48:05.156Z,26.62
2019-05-18T07:49:05.169Z,26.62
2019-05-18T07:50:05.177Z,26.81
2019-05-18T07:51:05.177Z,26.81
2019-05-18T07:52:05.478Z,26.81
2019-05-18T07:53:05.637Z,26.81
2019-05-18T07:54:05.011Z,26.88
2019-05-18T07:55:05.170Z,26.88
2019-05-18T07:56:05.162Z,26.88
2019-05-18T07:57:05.243Z,26.88
2019-05-18T07:58:05.715Z,26.81
2019-05-18T07:59:05.810Z,26.69
2019-05-18T08:00:05.794Z,26.50
2019-05-18T08:01:05.085Z,26.25
2019-05-18T08:02:05.091Z,26.19
2019-05-18T08:03:05.087Z,26.00
2019-05-18T08:04:05.324Z,25.88
2019-05-18T08:05:05.327Z,25.69
2019-05-18T08:06:05.310Z,25.56
2019-05-18T08:07:05.387Z,25.56
2019-05-18T08:08:05.796Z,25.50
2019-05-18T08:09:05.168Z,25.56
2019-05-18T08:10:05.397Z,25.56
2019-05-18T08:11:05.579Z,25.31
2019-05-18T08:12:05.567Z,25.06
2019-05-18T08:13:05.875Z,25.00
2019-05-18T08:14:05.235Z,25.00
2019-05-18T08:15:05.805Z,24.94
2019-05-18T08:16:05.813Z,25.00
2019-05-18T08:17:05.707Z,25.12
2019-05-18T08:18:05.084Z,25.12
2019-05-18T08:19:05.743Z,25.06
2019-05-18T08:20:05.678Z,25.12
2019-05-18T08:21:05.045Z,24.94
2019-05-18T08:22:05.207Z,24.94
2019-05-18T08:23:05.323Z,24.69
2019-05-18T08:24:06.069Z,24.56
2019-05-18T08:25:05.812Z,24.31
2019-05-18T08:26:04.989Z,24.25
2019-05-18T08:27:05.578Z,24.31
2019-05-18T08:28:05.481Z,24.25
2019-05-18T08:29:05.667Z,24.12
2019-05-18T08:30:05.741Z,24.19
2019-05-18T08:31:05.769Z,24.00
2019-05-18T08:32:05.085Z,23.75
2019-05-18T08:33:05.014Z,23.75
2019-05-18T08:34:05.260Z,23.62
2019-05-18T08:35:05.406Z,23.50
2019-05-18T08:36:05.428Z,23.38
2019-05-18T08:37:05.318Z,23.25
2019-05-18T08:38:05.313Z,23.06
2019-05-18T08:39:05.842Z,22.94
2019-05-18T08:40:05.530Z,22.75
2019-05-18T08:41:05.821Z,22.81
2019-05-18T08:42:05.006Z,22.75
2019-05-18T08:43:05.010Z,22.69
2019-05-18T08:44:05.971Z,22.69
2019-05-18T08:45:05.230Z,22.69
2019-05-18T08:46:05.489Z,22.75
2019-05-18T08:47:05.924Z,22.81
2019-05-18T08:48:05.322Z,22.56
2019-05-18T08:49:05.627Z,22.62
2019-05-18T08:50:05.703Z,22.69
2019-05-18T08:51:05.157Z,22.69
2019-05-18T08:52:08.069Z,22.69
2019-05-18T08:53:04.919Z,22.75
2019-05-18T08:54:05.372Z,22.81
2019-05-18T08:55:05.718Z,22.81
2019-05-18T08:56:05.716Z,22.75
2019-05-18T08:57:05.891Z,22.62
2019-05-18T08:58:05.557Z,22.62
2019-05-18T08:59:05.557Z,22.56
2019-05-18T09:00:05.704Z,22.44
2019-05-18T09:01:05.115Z,22.44
2019-05-18T09:02:05.104Z,22.25
2019-05-18T09:03:05.414Z,22.19
2019-05-18T09:04:05.015Z,22.19
2019-05-18T09:05:05.152Z,22.19
2019-05-18T09:06:05.754Z,22.25
2019-05-18T09:07:05.734Z,22.25
2019-05-18T09:08:05.973Z,22.12
2019-05-18T09:09:05.882Z,22.00
2019-05-18T09:10:05.084Z,21.88
2019-05-18T09:11:05.233Z,21.88
2019-05-18T09:12:05.397Z,21.88
2019-05-18T09:13:05.489Z,21.94
2019-05-18T09:14:05.755Z,22.00
2019-05-18T09:15:05.886Z,21.94
2019-05-18T09:16:05.968Z,21.88
2019-05-18T09:17:05.340Z,21.81
2019-05-18T09:18:05.394Z,21.75
2019-05-18T09:19:05.570Z,21.62
2019-05-18T09:20:05.638Z,21.56
2019-05-18T09:21:05.875Z,21.56
2019-05-18T09:22:05.402Z,21.56
2019-05-18T09:23:05.634Z,21.44
2019-05-18T09:24:05.916Z,21.38
2019-05-18T09:25:04.941Z,21.56
2019-05-18T09:26:05.156Z,21.62
2019-05-18T09:27:05.274Z,21.62
2019-05-18T09:28:05.238Z,21.56
2019-05-18T09:29:05.958Z,21.50
2019-05-18T09:30:05.249Z,21.38
2019-05-18T09:31:05.161Z,21.25
2019-05-18T09:32:05.744Z,21.31
2019-05-18T09:33:05.729Z,21.31
2019-05-18T09:34:05.621Z,21.38
2019-05-18T09:35:05.480Z,21.38
2019-05-18T09:36:05.932Z,21.38
2019-05-18T09:37:05.178Z,21.38
2019-05-18T09:38:05.720Z,21.31
2019-05-18T09:39:05.493Z,21.19
2019-05-18T09:40:05.562Z,21.19
2019-05-18T09:41:05.471Z,21.19
2019-05-18T09:42:05.502Z,21.12
2019-05-18T09:43:05.748Z,21.12
2019-05-18T09:44:05.889Z,21.06
2019-05-18T09:45:05.094Z,21.00
2019-05-18T09:46:05.582Z,21.00
2019-05-18T09:47:05.911Z,21.00
2019-05-18T09:48:05.989Z,21.06
2019-05-18T09:49:05.293Z,21.12
2019-05-18T09:50:05.566Z,21.12
2019-05-18T09:51:05.763Z,21.06
2019-05-18T09:52:05.830Z,21.00
2019-05-18T09:53:05.946Z,21.00
2019-05-18T09:54:05.243Z,21.00
2019-05-18T09:55:05.559Z,21.00
2019-05-18T09:56:05.304Z,21.00
2019-05-18T09:57:05.560Z,21.00
2019-05-18T09:58:05.159Z,20.94
2019-05-18T09:59:05.548Z,20.88
2019-05-18T10:00:05.256Z,20.88
2019-05-18T10:01:05.585Z,20.94
2019-05-18T10:02:06.060Z,20.88
2019-05-18T10:03:05.963Z,20.88
2019-05-18T10:04:05.527Z,20.88
2019-05-18T10:05:05.294Z,20.88
2019-05-18T10:06:05.457Z,20.88
2019-05-18T10:07:05.712Z,20.94
2019-05-18T10:08:06.011Z,20.94
2019-05-18T10:09:05.755Z,21.00
2019-05-18T10:10:05.764Z,20.94
2019-05-18T10:11:04.998Z,20.81
2019-05-18T10:12:05.588Z,20.75
2019-05-18T10:13:05.835Z,20.81
2019-05-18T10:14:05.816Z,20.94
2019-05-18T10:15:05.236Z,20.94
2019-05-18T10:16:05.950Z,21.00
2019-05-18T10:17:05.217Z,21.00
2019-05-18T10:18:05.389Z,21.06
2019-05-18T10:19:05.063Z,21.12
2019-05-18T10:20:05.562Z,21.12
2019-05-18T10:21:05.020Z,21.19
2019-05-18T10:22:05.418Z,21.19
2019-05-18T10:23:12.651Z,21.19
2019-05-18T10:24:05.236Z,21.25
2019-05-18T10:25:05.794Z,21.25
2019-05-18T10:26:05.225Z,21.31
2019-05-18T10:27:05.884Z,21.31
2019-05-18T10:28:05.725Z,21.38
2019-05-18T10:29:05.256Z,21.38
2019-05-18T10:30:05.073Z,21.44
2019-05-18T10:31:06.072Z,21.44
2019-05-18T10:32:05.434Z,21.44
2019-05-18T10:33:05.487Z,21.44
2019-05-18T10:34:05.871Z,21.44
2019-05-18T10:35:06.051Z,21.44
2019-05-18T10:36:05.930Z,21.50
2019-05-18T10:37:05.155Z,21.56
2019-05-18T10:38:05.479Z,21.56
2019-05-18T10:39:05.479Z,21.56
2019-05-18T10:40:05.229Z,21.62
2019-05-18T10:41:05.267Z,21.50
2019-05-18T10:42:05.415Z,21.50
2019-05-18T10:43:05.841Z,21.56
2019-05-18T10:44:06.164Z,21.56
2019-05-18T10:45:06.056Z,21.56
2019-05-18T10:46:05.330Z,21.56
2019-05-18T10:47:05.652Z,21.56
2019-05-18T10:48:05.946Z,21.56
2019-05-18T10:49:05.443Z,21.56
2019-05-18T10:50:05.351Z,21.50
2019-05-18T10:51:05.848Z,21.50
2019-05-18T10:52:05.400Z,21.44
2019-05-18T10:53:05.523Z,21.44
2019-05-18T10:54:05.801Z,21.44
2019-05-18T10:55:05.958Z,21.50
2019-05-18T10:56:05.906Z,21.50
2019-05-18T10:57:05.106Z,21.56
2019-05-18T10:58:05.589Z,21.50
2019-05-18T10:59:06.094Z,21.44
2019-05-18T11:00:05.635Z,21.38
2019-05-18T11:01:05.261Z,21.38
2019-05-18T11:02:05.920Z,21.38
2019-05-18T11:03:05.433Z,21.44
2019-05-18T11:04:05.628Z,21.56
2019-05-18T11:05:05.453Z,21.56
2019-05-18T11:06:05.959Z,21.62
2019-05-18T11:07:05.294Z,21.62
2019-05-18T11:08:05.731Z,21.69
2019-05-18T11:09:05.370Z,21.62
2019-05-18T11:10:06.035Z,21.62
2019-05-18T11:11:05.331Z,21.62
2019-05-18T11:12:05.640Z,21.56
2019-05-18T11:13:05.635Z,21.44
2019-05-18T11:14:06.059Z,21.38
2019-05-18T11:15:06.090Z,21.38
2019-05-18T11:16:05.989Z,21.44
2019-05-18T11:17:06.158Z,21.44
2019-05-18T11:18:05.546Z,21.44
2019-05-18T11:19:06.018Z,21.44
2019-05-18T11:20:05.651Z,21.50
2019-05-18T11:21:05.260Z,21.50
2019-05-18T11:22:06.008Z,21.56
2019-05-18T11:23:05.623Z,21.50
2019-05-18T11:24:05.433Z,21.50
2019-05-18T11:25:06.296Z,21.56
2019-05-18T11:26:05.743Z,21.56
2019-05-18T11:27:05.455Z,21.56
2019-05-18T11:28:05.255Z,21.62
2019-05-18T11:29:05.953Z,21.62
2019-05-18T11:30:05.492Z,21.69
2019-05-18T11:31:05.195Z,21.75
2019-05-18T11:32:05.274Z,21.88
2019-05-18T11:33:05.722Z,21.94
2019-05-18T11:34:05.278Z,22.00
2019-05-18T11:35:06.241Z,22.00
2019-05-18T11:36:05.593Z,22.06
2019-05-18T11:37:06.254Z,22.06
2019-05-18T11:38:06.242Z,22.00
2019-05-18T11:39:05.910Z,22.00
2019-05-18T11:40:05.483Z,22.06
2019-05-18T11:41:05.951Z,22.06
2019-05-18T11:42:05.794Z,22.12
2019-05-18T11:43:06.260Z,22.06
2019-05-18T11:44:05.648Z,22.06
2019-05-18T11:45:05.436Z,22.00
2019-05-18T11:46:05.716Z,22.00
2019-05-18T11:47:06.071Z,22.00
2019-05-18T11:48:05.598Z,21.94
2019-05-18T11:49:06.128Z,21.88
2019-05-18T11:50:05.901Z,21.88
2019-05-18T11:51:05.439Z,21.94
2019-05-18T11:52:05.491Z,22.00
2019-05-18T11:53:05.634Z,22.06
2019-05-18T11:54:06.152Z,22.06
2019-05-18T11:55:05.476Z,22.12
2019-05-18T11:56:05.664Z,22.06
2019-05-18T11:57:06.010Z,21.94
2019-05-18T11:58:05.553Z,21.81
2019-05-18T11:59:05.966Z,21.75
2019-05-18T12:00:05.471Z,21.62
2019-05-18T12:01:05.500Z,21.56
2019-05-18T12:02:05.740Z,21.56
2019-05-18T12:03:06.245Z,21.56
2019-05-18T12:04:05.769Z,21.56
2019-05-18T12:05:06.130Z,21.62
2019-05-18T12:06:05.802Z,21.56
2019-05-18T12:07:05.335Z,21.56
2019-05-18T12:08:05.934Z,21.56
2019-05-18T12:09:05.670Z,21.56
2019-05-18T12:10:05.585Z,21.62
2019-05-18T12:11:05.884Z,21.62
2019-05-18T12:12:05.941Z,21.69
2019-05-18T12:13:05.258Z,21.69
2019-05-18T12:14:05.925Z,21.75
2019-05-18T12:15:05.376Z,21.69
2019-05-18T12:16:05.631Z,21.62
2019-05-18T12:17:05.722Z,21.69
2019-05-18T12:18:05.694Z,21.69
2019-05-18T12:19:05.265Z,21.62
2019-05-18T12:20:05.497Z,21.62
2019-05-18T12:21:05.065Z,21.56
2019-05-18T12:22:05.632Z,21.56
2019-05-18T12:23:08.076Z,21.56
2019-05-18T12:24:14.554Z,21.56
2019-05-18T12:25:05.410Z,21.56
2019-05-18T12:26:05.631Z,21.62
2019-05-18T12:27:05.463Z,21.62
2019-05-18T12:28:05.424Z,21.69
2019-05-18T12:29:06.096Z,21.69
2019-05-18T12:30:05.053Z,21.69
2019-05-18T12:31:06.032Z,21.75
2019-05-18T12:32:05.705Z,21.81
2019-05-18T12:33:05.508Z,21.88
2019-05-18T12:34:05.670Z,21.88
2019-05-18T12:35:05.664Z,21.88
2019-05-18T12:36:05.872Z,21.94
2019-05-18T12:37:06.062Z,21.94
2019-05-18T12:38:05.520Z,22.00
2019-05-18T12:39:05.666Z,22.00
2019-05-18T12:40:05.457Z,22.06
2019-05-18T12:41:05.597Z,22.12
2019-05-18T12:42:07.612Z,22.12
2019-05-18T12:43:05.120Z,22.12
2019-05-18T12:44:05.340Z,22.12
2019-05-18T12:45:05.497Z,22.19
2019-05-18T12:46:05.571Z,22.19
2019-05-18T12:47:05.974Z,22.25
2019-05-18T12:48:05.248Z,22.31
2019-05-18T12:49:05.509Z,22.31
2019-05-18T12:50:05.796Z,22.31
2019-05-18T12:51:05.201Z,22.31
2019-05-18T12:52:05.341Z,22.31
2019-05-18T12:53:05.840Z,22.31
2019-05-18T12:54:05.126Z,22.38
2019-05-18T12:55:05.206Z,22.31
2019-05-18T12:56:05.739Z,22.31
2019-05-18T12:57:05.841Z,22.31
2019-05-18T12:58:05.802Z,22.38
2019-05-18T12:59:05.874Z,22.38
2019-05-18T13:00:05.639Z,22.44
2019-05-18T13:01:06.214Z,22.50
2019-05-18T13:02:05.620Z,22.50